Time;durP1;ratioP1;P1;durP2;ratioP2;P2;SDS_P1;SDS_P2;PMS_P1;PMS_P2;Temp;Humidity;BMP_temperature;BMP_pressure;BME280_temperature;BME280_humidity;BME280_pressure;Samples;Min_cycle;Max_cycle;Signal;HPM_P1;HPM_P2
2022/03/02 00:00:08;;;;;;;15.03;11.20;;;6.10;43.00;;;;;;5030664;28;20279;-45
2022/03/02 00:02:34;;;;;;;18.30;10.20;;;6.00;43.00;;;;;;5031678;28;20200;-45
2022/03/02 00:04:59;;;;;;;12.07;10.40;;;5.70;43.20;;;;;;5030895;28;20424;-48
2022/03/02 00:07:25;;;;;;;12.60;9.90;;;5.80;43.30;;;;;;5031606;28;20197;-46
2022/03/02 00:09:50;;;;;;;12.97;9.90;;;5.80;43.00;;;;;;5030898;28;20193;-48
2022/03/02 00:12:16;;;;;;;14.40;9.30;;;5.80;43.10;;;;;;5028968;28;20201;-45
2022/03/02 00:14:41;;;;;;;14.10;9.57;;;5.80;42.90;;;;;;5030809;28;20221;-46
2022/03/02 00:17:07;;;;;;;12.73;8.97;;;5.90;42.80;;;;;;5031860;28;20268;-46
2022/03/02 00:19:34;;;;;;;15.83;11.40;;;6.00;42.60;;;;;;5030773;28;20707;-45
2022/03/02 00:22:00;;;;;;;14.23;9.30;;;5.90;42.50;;;;;;5030929;28;20296;-45
2022/03/02 00:24:25;;;;;;;17.07;10.27;;;5.70;42.90;;;;;;5031109;28;20506;-46
2022/03/02 00:26:51;;;;;;;12.17;9.40;;;5.80;42.90;;;;;;5031092;28;20438;-49
2022/03/02 00:29:17;;;;;;;15.00;10.13;;;5.50;43.40;;;;;;5030802;28;21034;-45
2022/03/02 00:31:43;;;;;;;15.03;10.50;;;5.30;44.00;;;;;;5030829;28;20272;-44
2022/03/02 00:34:09;;;;;;;15.73;10.17;;;5.10;44.50;;;;;;5030647;28;20258;-45
2022/03/02 00:36:35;;;;;;;13.80;9.60;;;5.10;44.70;;;;;;5031449;28;20455;-47
2022/03/02 00:39:01;;;;;;;14.80;10.67;;;5.30;44.30;;;;;;5028443;28;20952;-45
2022/03/02 00:41:26;;;;;;;14.40;9.83;;;5.50;43.90;;;;;;5040395;28;20271;-45
2022/03/02 00:43:52;;;;;;;18.17;11.27;;;5.30;43.90;;;;;;5046592;28;20229;-47
2022/03/02 00:46:17;;;;;;;19.17;11.20;;;5.20;44.50;;;;;;5034413;28;20652;-45
2022/03/02 00:48:44;;;;;;;15.93;10.37;;;5.10;44.80;;;;;;5030546;28;20225;-45
2022/03/02 00:51:10;;;;;;;13.10;9.37;;;5.00;45.10;;;;;;5030648;28;20243;-47
2022/03/02 00:53:36;;;;;;;15.60;9.83;;;5.00;45.40;;;;;;5030133;28;20443;-44
2022/03/02 00:56:01;;;;;;;13.57;10.37;;;5.10;45.10;;;;;;5030843;28;20440;-50
2022/03/02 00:58:27;;;;;;;12.43;9.37;;;5.20;45.20;;;;;;5030591;28;20580;-48
2022/03/02 01:00:52;;;;;;;11.00;9.40;;;5.30;45.00;;;;;;5030467;28;20308;-49
2022/03/02 01:03:18;;;;;;;11.40;9.33;;;5.30;44.80;;;;;;5030265;28;20699;-45
2022/03/02 01:05:44;;;;;;;12.77;10.60;;;5.10;44.90;;;;;;5029278;28;20193;-46
2022/03/02 01:08:09;;;;;;;15.47;10.23;;;4.70;45.50;;;;;;5030313;28;20192;-47
2022/03/02 01:10:35;;;;;;;14.03;10.50;;;4.70;46.00;;;;;;5030481;28;20676;-47
2022/03/02 01:13:00;;;;;;;13.03;9.03;;;5.00;45.60;;;;;;5029899;28;20193;-50
2022/03/02 01:15:26;;;;;;;10.80;8.30;;;5.20;45.20;;;;;;5030994;28;20323;-45
2022/03/02 01:17:52;;;;;;;13.47;9.10;;;5.40;44.90;;;;;;5032333;28;20200;-45
2022/03/02 01:20:17;;;;;;;15.60;10.07;;;5.50;44.50;;;;;;5033214;28;20225;-48
2022/03/02 01:22:43;;;;;;;11.53;8.40;;;5.10;44.40;;;;;;5034107;28;20196;-48
2022/03/02 01:25:09;;;;;;;14.67;9.73;;;4.90;45.50;;;;;;5034542;28;20958;-46
2022/03/02 01:27:35;;;;;;;13.43;9.73;;;5.00;45.70;;;;;;5034626;28;20189;-48
2022/03/02 01:30:02;;;;;;;17.30;10.63;;;5.10;45.60;;;;;;5033663;28;20427;-46
2022/03/02 01:32:28;;;;;;;16.43;9.53;;;5.30;45.30;;;;;;5032811;28;21034;-48
2022/03/02 01:34:53;;;;;;;11.70;9.40;;;5.50;44.90;;;;;;5034077;28;20438;-49
2022/03/02 01:37:19;;;;;;;13.40;10.37;;;5.60;45.00;;;;;;5034340;28;20193;-45
2022/03/02 01:39:44;;;;;;;12.20;9.77;;;5.70;44.20;;;;;;5033860;28;20225;-44
2022/03/02 01:42:10;;;;;;;14.53;10.60;;;5.70;44.00;;;;;;5048931;28;20617;-45
2022/03/02 01:44:36;;;;;;;13.87;10.33;;;5.80;43.90;;;;;;5043890;28;20672;-46
2022/03/02 01:47:04;;;;;;;16.40;10.67;;;5.80;43.80;;;;;;5034149;28;20190;-50
2022/03/02 01:49:29;;;;;;;15.70;10.10;;;5.40;44.20;;;;;;5033430;28;20432;-45
2022/03/02 01:51:55;;;;;;;15.23;10.67;;;5.60;44.30;;;;;;5033899;28;20426;-45
2022/03/02 01:54:21;;;;;;;16.33;11.07;;;5.80;44.00;;;;;;5033522;28;20195;-45
2022/03/02 01:56:48;;;;;;;13.97;9.10;;;5.90;43.90;;;;;;5033792;28;20189;-48
2022/03/02 01:59:13;;;;;;;9.70;8.70;;;5.50;44.40;;;;;;5031485;28;20213;-45
2022/03/02 02:01:39;;;;;;;15.43;9.83;;;5.40;44.80;;;;;;5033407;28;20424;-44
2022/03/02 02:04:05;;;;;;;14.20;9.50;;;5.40;45.10;;;;;;5033374;28;20215;-49
2022/03/02 02:06:31;;;;;;;14.50;9.20;;;5.50;45.10;;;;;;5033265;28;20193;-50
2022/03/02 02:09:00;;;;;;;13.20;9.27;;;5.10;45.60;;;;;;5033266;28;20794;-44
2022/03/02 02:11:26;;;;;;;15.00;10.00;;;5.20;45.60;;;;;;5033174;28;20232;-45
2022/03/02 02:13:52;;;;;;;15.97;10.57;;;5.20;45.40;;;;;;5032964;28;20480;-45
2022/03/02 02:16:20;;;;;;;14.00;11.03;;;5.00;45.40;;;;;;5033457;28;20228;-46
2022/03/02 02:18:46;;;;;;;12.27;9.30;;;4.80;46.00;;;;;;5032938;28;20891;-51
2022/03/02 02:21:12;;;;;;;12.13;9.60;;;4.60;46.20;;;;;;5033161;28;20470;-48
2022/03/02 02:23:38;;;;;;;13.67;9.40;;;4.70;46.10;;;;;;5033338;28;20189;-44
2022/03/02 02:26:05;;;;;;;11.03;9.37;;;4.60;46.20;;;;;;5031876;28;20197;-45
2022/03/02 02:28:32;;;;;;;14.40;9.10;;;4.50;46.60;;;;;;5032844;28;20428;-45
2022/03/02 02:30:59;;;;;;;12.03;9.47;;;4.40;46.80;;;;;;5033154;28;20907;-47
2022/03/02 02:33:25;;;;;;;13.40;9.67;;;4.40;47.00;;;;;;5033112;28;20436;-45
2022/03/02 02:35:51;;;;;;;17.87;9.47;;;4.30;47.00;;;;;;5033287;28;20424;-49
2022/03/02 02:38:18;;;;;;;15.23;9.30;;;4.20;47.30;;;;;;5032637;28;20428;-48
2022/03/02 02:40:44;;;;;;;14.30;10.63;;;4.10;47.70;;;;;;5036113;28;20217;-47
2022/03/02 02:43:10;;;;;;;12.30;9.20;;;4.20;47.60;;;;;;5051929;28;20470;-44
2022/03/02 02:45:35;;;;;;;12.40;9.33;;;4.30;47.40;;;;;;5038434;28;20273;-48
2022/03/02 02:48:02;;;;;;;14.53;9.63;;;4.20;48.20;;;;;;5032097;28;20546;-47
2022/03/02 02:50:30;;;;;;;15.90;10.10;;;4.40;47.60;;;;;;5032542;28;20204;-47
2022/03/02 02:52:57;;;;;;;15.00;9.40;;;4.40;47.40;;;;;;5030774;28;20424;-46
2022/03/02 02:55:25;;;;;;;14.73;9.20;;;4.50;47.10;;;;;;5032708;28;20423;-46
2022/03/02 02:57:51;;;;;;;16.77;10.33;;;4.50;47.60;;;;;;5031721;28;20440;-44
2022/03/02 03:00:19;;;;;;;15.03;9.43;;;4.50;47.00;;;;;;5032143;28;20574;-49
2022/03/02 03:02:47;;;;;;;13.43;9.93;;;4.60;46.80;;;;;;5032229;28;20447;-45
2022/03/02 03:05:16;;;;;;;12.83;9.07;;;4.80;46.50;;;;;;5032349;28;20436;-47
2022/03/02 03:07:42;;;;;;;19.27;9.00;;;4.90;46.20;;;;;;5032061;28;20478;-45
2022/03/02 03:10:09;;;;;;;13.63;9.60;;;4.80;45.90;;;;;;5031689;28;20451;-46
2022/03/02 03:12:35;;;;;;;16.57;9.23;;;5.00;46.00;;;;;;5032545;28;20432;-45
2022/03/02 03:15:04;;;;;;;15.27;9.60;;;5.10;45.60;;;;;;5031669;28;20428;-45
2022/03/02 03:17:29;;;;;;;13.07;9.50;;;5.20;45.40;;;;;;5032021;28;20430;-46
2022/03/02 03:19:55;;;;;;;14.07;9.17;;;5.30;45.00;;;;;;5029755;28;20479;-46
2022/03/02 03:22:21;;;;;;;14.00;9.87;;;5.30;44.90;;;;;;5032232;28;20558;-45
2022/03/02 03:24:47;;;;;;;14.07;9.30;;;5.30;44.70;;;;;;5031691;28;20240;-46
2022/03/02 03:27:12;;;;;;;13.10;10.20;;;5.30;44.60;;;;;;5031905;28;20272;-45
2022/03/02 03:29:38;;;;;;;11.93;9.77;;;5.40;44.60;;;;;;5031419;28;20645;-45
2022/03/02 03:32:04;;;;;;;11.33;9.67;;;5.40;44.50;;;;;;5031870;28;20203;-44
2022/03/02 03:34:30;;;;;;;12.23;8.77;;;5.40;44.30;;;;;;5031392;28;20196;-44
2022/03/02 03:36:56;;;;;;;12.90;10.10;;;5.40;44.80;;;;;;5031993;28;21192;-47
2022/03/02 03:39:22;;;;;;;12.10;9.40;;;5.50;44.20;;;;;;5031051;28;20266;-45
2022/03/02 03:41:47;;;;;;;12.40;9.40;;;5.40;44.10;;;;;;5043126;28;20423;-45
2022/03/02 03:44:13;;;;;;;13.37;9.23;;;5.30;44.40;;;;;;5042972;28;20256;-45
2022/03/02 03:46:38;;;;;;;12.60;9.57;;;5.20;44.70;;;;;;5033296;28;20208;-44
2022/03/02 03:49:04;;;;;;;10.80;8.20;;;5.00;45.00;;;;;;5031037;28;20205;-44
2022/03/02 03:51:30;;;;;;;13.53;9.53;;;5.00;45.20;;;;;;5031218;28;20189;-45
2022/03/02 03:53:55;;;;;;;11.90;8.87;;;4.90;45.30;;;;;;5031257;28;20193;-44
2022/03/02 03:56:21;;;;;;;11.83;8.90;;;4.80;45.70;;;;;;5031370;28;20668;-44
2022/03/02 03:58:46;;;;;;;11.37;8.13;;;4.50;46.00;;;;;;5030710;28;20348;-47
2022/03/02 04:01:12;;;;;;;13.90;9.83;;;4.50;46.40;;;;;;5030927;28;20264;-45
2022/03/02 04:03:38;;;;;;;12.73;9.07;;;4.60;46.40;;;;;;5030835;28;20208;-44
2022/03/02 04:06:04;;;;;;;14.73;10.00;;;4.70;46.40;;;;;;5031394;28;20647;-47
2022/03/02 04:08:30;;;;;;;11.03;9.50;;;4.60;46.30;;;;;;5030682;28;20232;-47
2022/03/02 04:10:55;;;;;;;12.03;8.53;;;4.30;47.00;;;;;;5031193;28;20772;-45
2022/03/02 04:13:21;;;;;;;11.10;9.23;;;4.20;47.60;;;;;;5030002;28;20696;-49
2022/03/02 04:15:47;;;;;;;13.93;9.77;;;4.20;47.80;;;;;;5030429;28;20190;-48
2022/03/02 04:18:12;;;;;;;12.80;9.20;;;4.20;47.80;;;;;;5030439;28;20197;-47
2022/03/02 04:20:39;;;;;;;13.13;9.73;;;4.20;48.00;;;;;;5030603;28;20676;-47
2022/03/02 04:23:05;;;;;;;13.97;9.67;;;4.20;48.10;;;;;;5030453;28;20247;-46
2022/03/02 04:25:31;;;;;;;11.90;9.00;;;4.20;47.90;;;;;;5030929;28;20444;-50
2022/03/02 04:27:56;;;;;;;12.33;9.93;;;4.30;48.00;;;;;;5030594;28;20518;-46
2022/03/02 04:30:23;;;;;;;16.87;9.20;;;4.40;47.60;;;;;;5030600;28;20193;-45
2022/03/02 04:32:48;;;;;;;16.80;10.23;;;4.40;47.30;;;;;;5030131;28;20213;-46
2022/03/02 04:35:14;;;;;;;17.57;10.53;;;4.50;47.30;;;;;;5030733;28;20502;-47
2022/03/02 04:37:41;;;;;;;13.67;9.23;;;4.60;47.10;;;;;;5030697;28;20420;-45
2022/03/02 04:40:09;;;;;;;18.07;9.73;;;4.70;46.80;;;;;;5029954;28;20225;-47
2022/03/02 04:42:35;;;;;;;12.33;8.77;;;4.70;46.40;;;;;;5041133;28;20456;-46
2022/03/02 04:45:01;;;;;;;12.37;9.17;;;4.80;46.30;;;;;;5032054;28;20431;-48
2022/03/02 04:47:26;;;;;;;15.83;9.63;;;4.70;46.20;;;;;;5044113;28;20423;-47
2022/03/02 04:49:52;;;;;;;13.50;9.00;;;4.70;46.40;;;;;;5029470;28;20463;-47
2022/03/02 04:52:19;;;;;;;13.30;9.20;;;4.70;46.50;;;;;;5029815;28;20219;-45
2022/03/02 04:57:29;;;;;;;13.73;9.03;;;4.80;46.20;;;;;;5031033;28;20438;-48
2022/03/02 04:59:55;;;;;;;16.30;9.17;;;4.80;45.90;;;;;;5029795;28;20491;-45
2022/03/02 05:02:20;;;;;;;13.83;9.87;;;4.70;46.00;;;;;;5030700;28;20289;-47
2022/03/02 05:04:46;;;;;;;14.50;9.00;;;4.70;45.90;;;;;;5029801;28;20640;-50
2022/03/02 05:07:11;;;;;;;12.63;8.30;;;4.70;45.80;;;;;;5030470;28;20892;-45
2022/03/02 05:09:37;;;;;;;11.97;8.70;;;4.70;45.60;;;;;;5027944;28;20220;-48
2022/03/02 05:12:03;;;;;;;12.40;7.80;;;4.70;46.20;;;;;;5030328;28;20585;-49
2022/03/02 05:14:30;;;;;;;14.03;9.63;;;4.70;45.60;;;;;;5029533;28;20559;-44
2022/03/02 05:16:56;;;;;;;16.03;9.17;;;4.70;45.60;;;;;;5030622;28;20796;-48
2022/03/02 05:19:21;;;;;;;10.67;8.47;;;4.60;45.70;;;;;;5029780;28;20464;-46
2022/03/02 05:21:47;;;;;;;11.43;8.77;;;4.50;46.00;;;;;;5030060;28;20205;-46
2022/03/02 05:24:14;;;;;;;10.70;8.20;;;4.40;46.30;;;;;;5029739;28;20257;-45
2022/03/02 05:26:40;;;;;;;9.70;8.27;;;4.10;46.80;;;;;;5030365;28;20977;-48
2022/03/02 05:29:05;;;;;;;10.63;8.20;;;4.00;47.30;;;;;;5029688;28;20424;-48
2022/03/02 05:31:31;;;;;;;10.60;8.70;;;3.90;47.40;;;;;;5030007;28;20424;-47
2022/03/02 05:33:57;;;;;;;11.90;9.03;;;4.00;47.40;;;;;;5029885;28;20563;-45
2022/03/02 05:36:23;;;;;;;15.63;9.07;;;4.20;47.20;;;;;;5028798;28;20439;-46
2022/03/02 05:38:49;;;;;;;13.83;9.53;;;4.40;46.90;;;;;;5029455;28;20205;-46
2022/03/02 05:41:14;;;;;;;12.07;8.30;;;4.40;46.70;;;;;;5037170;28;20528;-50
2022/03/02 05:43:40;;;;;;;12.53;9.13;;;4.50;46.70;;;;;;5046929;28;20232;-45
2022/03/02 05:46:06;;;;;;;13.30;8.40;;;4.50;46.50;;;;;;5033631;28;20598;-44
2022/03/02 05:48:31;;;;;;;13.77;8.47;;;4.50;46.60;;;;;;5029556;28;20216;-48
2022/03/02 05:50:57;;;;;;;10.73;8.83;;;4.40;46.60;;;;;;5029947;28;20385;-46
2022/03/02 05:53:22;;;;;;;11.27;8.23;;;4.30;46.90;;;;;;5029714;28;20197;-50
2022/03/02 05:55:48;;;;;;;11.07;8.93;;;4.20;47.10;;;;;;5028728;28;20283;-48
2022/03/02 05:58:14;;;;;;;12.43;9.17;;;4.00;47.60;;;;;;5029293;28;20193;-45
2022/03/02 06:00:41;;;;;;;13.37;8.40;;;4.10;47.90;;;;;;5029447;28;20224;-51
2022/03/02 06:03:08;;;;;;;10.90;8.67;;;4.20;47.50;;;;;;5028831;28;20231;-44
2022/03/02 06:05:34;;;;;;;10.57;7.93;;;4.00;47.50;;;;;;5033344;28;20440;-46
2022/03/02 06:08:00;;;;;;;9.90;8.37;;;4.10;47.80;;;;;;5033040;28;20442;-49
2022/03/02 06:10:25;;;;;;;10.40;7.93;;;4.20;47.50;;;;;;5033263;28;20267;-45
2022/03/02 06:12:51;;;;;;;14.53;8.53;;;3.90;47.50;;;;;;5032698;28;20198;-44
2022/03/02 06:15:17;;;;;;;10.90;8.53;;;3.90;48.00;;;;;;5033420;28;20513;-48
2022/03/02 06:17:43;;;;;;;13.97;9.30;;;3.90;47.90;;;;;;5032711;28;20428;-45
2022/03/02 06:20:10;;;;;;;12.77;8.30;;;3.80;48.20;;;;;;5032476;28;20495;-44
2022/03/02 06:22:36;;;;;;;13.97;8.40;;;3.90;48.40;;;;;;5033451;28;20569;-48
2022/03/02 06:25:04;;;;;;;11.93;9.53;;;3.90;48.30;;;;;;5032783;28;20462;-46
2022/03/02 06:27:30;;;;;;;11.87;8.57;;;3.80;48.70;;;;;;5032756;28;20442;-49
2022/03/02 06:29:56;;;;;;;11.97;8.83;;;3.80;49.00;;;;;;5030922;28;20507;-46
2022/03/02 06:32:22;;;;;;;12.70;8.70;;;3.80;49.20;;;;;;5033004;28;20432;-44
2022/03/02 06:34:47;;;;;;;12.47;8.87;;;3.90;49.40;;;;;;5032193;28;21281;-45
2022/03/02 06:37:13;;;;;;;12.13;8.30;;;4.10;49.00;;;;;;5032897;28;20193;-45
2022/03/02 06:39:39;;;;;;;12.33;8.87;;;3.90;49.00;;;;;;5031997;28;20947;-46
2022/03/02 06:42:24;;;;;;;12.57;8.70;;;4.00;49.40;;;;;;5046947;28;20193;-45
2022/03/02 06:45:00;;;;;;;10.90;8.77;;;4.20;49.00;;;;;;5041785;28;20468;-44
2022/03/02 06:47:51;;;;;;;12.73;9.00;;;4.50;48.50;;;;;;5032898;28;20969;-47
2022/03/02 06:50:23;;;;;;;13.87;8.80;;;4.60;48.00;;;;;;5032518;28;21118;-48
2022/03/02 06:52:53;;;;;;;13.20;9.23;;;4.70;47.80;;;;;;5032177;28;20428;-47
2022/03/02 06:55:19;;;;;;;13.33;10.50;;;4.30;47.80;;;;;;5032343;28;20478;-45
2022/03/02 06:57:56;;;;;;;14.20;12.30;;;4.30;48.50;;;;;;5030608;28;20428;-47
2022/03/02 07:00:23;;;;;;;22.77;13.17;;;4.50;48.90;;;;;;5032013;28;20315;-50
2022/03/02 07:02:52;;;;;;;16.63;11.93;;;4.80;48.40;;;;;;5032074;28;20867;-46
2022/03/02 07:05:19;;;;;;;13.10;10.30;;;5.00;47.90;;;;;;5032322;28;20413;-48
2022/03/02 07:07:47;;;;;;;13.87;9.57;;;5.20;47.50;;;;;;5032076;28;20432;-44
2022/03/02 07:10:13;;;;;;;10.30;8.63;;;5.40;47.00;;;;;;5031951;28;20503;-46
2022/03/02 07:12:40;;;;;;;10.63;8.30;;;5.50;46.50;;;;;;5032413;28;20482;-45
2022/03/02 07:15:07;;;;;;;12.30;9.97;;;5.50;46.30;;;;;;5030934;28;20412;-45
2022/03/02 07:17:33;;;;;;;15.53;11.27;;;5.30;46.90;;;;;;5032023;28;21132;-45
2022/03/02 07:20:00;;;;;;;15.53;9.70;;;5.20;47.40;;;;;;5031493;28;20939;-45
2022/03/02 07:22:31;;;;;;;11.73;10.53;;;5.30;47.40;;;;;;5032338;28;20424;-47
2022/03/02 07:25:03;;;;;;;18.50;10.50;;;5.50;47.10;;;;;;5029986;28;20423;-46
2022/03/02 07:27:30;;;;;;;13.10;9.53;;;5.60;46.70;;;;;;5031605;28;20464;-45
2022/03/02 07:29:55;;;;;;;12.37;8.50;;;5.50;46.50;;;;;;5031260;28;20511;-46
2022/03/02 07:32:23;;;;;;;14.80;8.67;;;5.60;46.50;;;;;;5032361;28;20528;-50
2022/03/02 07:34:55;;;;;;;11.73;9.13;;;5.60;46.40;;;;;;5031815;28;20198;-46
2022/03/02 07:37:21;;;;;;;17.33;8.77;;;5.60;46.30;;;;;;5032077;28;20427;-46
2022/03/02 07:39:48;;;;;;;15.30;9.83;;;5.70;46.60;;;;;;5031317;28;20480;-48
2022/03/02 07:42:14;;;;;;;15.40;8.83;;;5.80;46.40;;;;;;5047356;28;20415;-44
2022/03/02 07:44:41;;;;;;;12.73;9.20;;;6.00;46.10;;;;;;5041454;28;20470;-46
2022/03/02 07:47:07;;;;;;;11.73;8.97;;;6.10;45.70;;;;;;5034964;28;20219;-45
2022/03/02 07:49:33;;;;;;;10.73;8.77;;;6.20;45.50;;;;;;5031096;28;20474;-44
2022/03/02 07:52:07;;;;;;;15.87;9.50;;;6.30;45.40;;;;;;5030109;28;20937;-45
2022/03/02 07:54:39;;;;;;;11.47;9.50;;;6.40;45.50;;;;;;5031068;28;20916;-45
2022/03/02 07:57:10;;;;;;;15.30;10.13;;;6.50;45.40;;;;;;5032011;28;20507;-48
2022/03/02 07:59:42;;;;;;;13.23;9.60;;;6.60;45.40;;;;;;5030882;28;20471;-44
2022/03/02 08:02:09;;;;;;;14.90;10.97;;;6.70;45.20;;;;;;5032160;28;20431;-45
2022/03/02 08:04:36;;;;;;;14.37;10.13;;;6.70;44.90;;;;;;5031095;28;20817;-47
2022/03/02 08:07:03;;;;;;;20.03;12.53;;;6.80;45.00;;;;;;5031488;28;20455;-44
2022/03/02 08:09:32;;;;;;;21.33;11.47;;;6.90;45.10;;;;;;5030838;28;20424;-48
2022/03/02 08:12:02;;;;;;;13.70;10.00;;;7.00;45.00;;;;;;5031909;28;20832;-47
2022/03/02 08:14:28;;;;;;;13.17;9.53;;;7.00;44.40;;;;;;5031162;28;20428;-44
2022/03/02 08:16:55;;;;;;;11.60;9.70;;;7.10;44.20;;;;;;5031510;28;20503;-45
2022/03/02 08:19:21;;;;;;;11.30;9.03;;;7.10;44.00;;;;;;5028758;28;20963;-45
2022/03/02 08:21:52;;;;;;;13.37;10.30;;;7.20;44.00;;;;;;5031577;28;20510;-44
2022/03/02 08:24:18;;;;;;;11.10;8.73;;;7.20;44.20;;;;;;5030645;28;21125;-45
2022/03/02 08:26:48;;;;;;;12.97;10.70;;;7.20;44.10;;;;;;5029915;28;20467;-48
2022/03/02 08:29:14;;;;;;;14.40;10.00;;;7.30;44.30;;;;;;5030453;28;21344;-44
2022/03/02 08:31:42;;;;;;;16.20;9.90;;;7.40;44.30;;;;;;5031099;28;20955;-45
2022/03/02 08:34:09;;;;;;;14.63;10.00;;;7.50;44.30;;;;;;5030730;28;20193;-44
2022/03/02 08:36:36;;;;;;;14.10;10.40;;;7.70;44.20;;;;;;5031203;28;20497;-45
2022/03/02 08:39:12;;;;;;;12.70;10.07;;;7.80;43.80;;;;;;5030417;28;20519;-44
2022/03/02 08:41:39;;;;;;;13.13;10.20;;;7.90;43.50;;;;;;5041642;28;21017;-45
2022/03/02 08:44:06;;;;;;;15.73;10.57;;;7.90;43.10;;;;;;5044559;28;20476;-49
2022/03/02 08:46:32;;;;;;;21.07;11.37;;;8.00;43.00;;;;;;5033206;28;20439;-45
2022/03/02 08:48:58;;;;;;;13.17;10.50;;;8.00;42.60;;;;;;5030458;28;20428;-46
2022/03/02 08:51:25;;;;;;;19.10;10.87;;;8.10;42.50;;;;;;5030767;28;20478;-44
2022/03/02 08:53:54;;;;;;;15.77;11.03;;;8.20;42.20;;;;;;5030127;28;20279;-45
2022/03/02 08:56:20;;;;;;;17.43;11.63;;;8.30;42.00;;;;;;5031313;28;20446;-45
2022/03/02 08:58:46;;;;;;;15.40;11.50;;;8.40;41.80;;;;;;5030459;28;20424;-45
2022/03/02 09:01:13;;;;;;;14.67;10.30;;;8.50;41.60;;;;;;5030550;28;20480;-46
2022/03/02 09:03:45;;;;;;;15.10;10.30;;;8.60;41.10;;;;;;5030192;28;20675;-46
2022/03/02 09:06:11;;;;;;;12.40;10.07;;;8.70;40.80;;;;;;5030869;28;20447;-45
2022/03/02 09:08:37;;;;;;;16.60;10.23;;;8.80;40.80;;;;;;5030628;28;20463;-45
2022/03/02 09:11:03;;;;;;;11.53;9.20;;;8.80;40.70;;;;;;5030140;28;20436;-45
2022/03/02 09:13:29;;;;;;;10.43;8.33;;;8.90;40.20;;;;;;5029153;28;20475;-47
2022/03/02 09:15:56;;;;;;;11.90;9.10;;;9.00;38.90;;;;;;5030635;28;20246;-46
2022/03/02 09:18:21;;;;;;;14.00;10.17;;;9.10;38.70;;;;;;5030334;28;20452;-48
2022/03/02 09:20:55;;;;;;;13.27;9.60;;;9.10;39.20;;;;;;5012639;28;20539;-46
2022/03/02 09:23:24;;;;;;;14.17;8.50;;;9.20;38.90;;;;;;5029934;28;20201;-47
2022/03/02 09:25:51;;;;;;;12.13;7.30;;;8.80;37.80;;;;;;5030716;28;20420;-47
2022/03/02 09:28:18;;;;;;;12.80;8.13;;;8.90;37.50;;;;;;5030367;28;20439;-49
2022/03/02 09:30:45;;;;;;;10.10;7.97;;;8.90;37.10;;;;;;5030370;28;20515;-49
2022/03/02 09:33:14;;;;;;;8.20;7.40;;;9.00;36.60;;;;;;5030151;28;20885;-50
2022/03/02 09:35:40;;;;;;;9.77;7.53;;;9.20;36.30;;;;;;5030513;28;20468;-50
2022/03/02 09:38:07;;;;;;;10.70;8.13;;;9.50;36.20;;;;;;5029584;28;20439;-47
2022/03/02 09:40:33;;;;;;;11.43;8.83;;;9.90;35.70;;;;;;5034902;28;20529;-50
2022/03/02 09:43:07;;;;;;;9.17;8.17;;;10.20;34.30;;;;;;5053546;28;20969;-45
2022/03/02 09:45:34;;;;;;;13.23;8.53;;;10.30;34.20;;;;;;5040593;28;20436;-50
2022/03/02 09:48:03;;;;;;;9.50;7.30;;;10.40;34.20;;;;;;5033690;28;20420;-46
2022/03/02 09:50:33;;;;;;;8.67;7.63;;;10.50;34.00;;;;;;5033687;28;20454;-49
2022/03/02 09:53:02;;;;;;;9.70;7.80;;;10.80;33.70;;;;;;5033446;28;20810;-49
2022/03/02 09:55:28;;;;;;;12.70;9.03;;;11.20;33.40;;;;;;5033975;28;20507;-47
2022/03/02 09:57:57;;;;;;;11.10;9.33;;;11.30;32.30;;;;;;5033805;28;20548;-45
2022/03/02 10:00:25;;;;;;;11.23;7.90;;;11.30;32.40;;;;;;5034017;28;20216;-45
2022/03/02 10:02:56;;;;;;;9.30;8.37;;;11.50;32.10;;;;;;5033440;28;20942;-45
2022/03/02 10:05:34;;;;;;;9.50;8.50;;;11.50;32.30;;;;;;5032675;28;20427;-49
2022/03/02 10:08:07;;;;;;;13.07;8.50;;;11.70;32.70;;;;;;5033316;28;20432;-50
2022/03/02 10:10:41;;;;;;;14.13;8.80;;;11.90;32.50;;;;;;5033140;28;20435;-50
2022/03/02 10:13:10;;;;;;;10.50;9.10;;;11.80;31.20;;;;;;5032870;28;20431;-46
2022/03/02 10:15:36;;;;;;;9.73;8.73;;;11.70;31.30;;;;;;5033598;28;20963;-47
2022/03/02 10:18:04;;;;;;;9.43;8.40;;;11.80;32.00;;;;;;5032941;28;20753;-46
2022/03/02 10:20:33;;;;;;;10.80;8.40;;;11.90;32.00;;;;;;5032870;28;20487;-52
2022/03/02 10:23:01;;;;;;;12.00;9.70;;;12.10;31.50;;;;;;5032924;28;20412;-50
2022/03/02 10:25:49;;;;;;;12.30;8.43;;;12.20;31.60;;;;;;5033606;28;20468;-49
2022/03/02 10:28:29;;;;;;;10.17;9.17;;;12.30;31.50;;;;;;5032843;28;20485;-51
2022/03/02 10:31:32;;;;;;;8.97;8.17;;;12.50;31.60;;;;;;5032949;28;20438;-47
2022/03/02 10:34:25;;;;;;;11.13;9.10;;;12.80;31.40;;;;;;5031213;28;20436;-50
2022/03/02 10:37:13;;;;;;;11.33;9.50;;;12.90;31.00;;;;;;5033312;28;20435;-49
2022/03/02 10:39:54;;;;;;;13.00;10.10;;;13.00;31.30;;;;;;5031971;28;20494;-45
2022/03/02 10:42:28;;;;;;;10.17;8.43;;;13.30;30.60;;;;;;5048892;28;20989;-47
2022/03/02 10:45:36;;;;;;;10.70;9.60;;;13.30;29.90;;;;;;5042762;28;20515;-47
2022/03/02 10:48:12;;;;;;;11.90;9.80;;;13.40;30.50;;;;;;5032206;28;20463;-48
2022/03/02 10:50:40;;;;;;;13.17;9.17;;;13.70;30.60;;;;;;5051221;28;20997;-49
2022/03/02 10:53:13;;;;;;;12.13;10.57;;;13.90;29.80;;;;;;5052251;28;20462;-46
2022/03/02 10:55:43;;;;;;;9.97;8.57;;;14.00;29.50;;;;;;5052637;28;20492;-47
2022/03/02 10:58:13;;;;;;;15.47;9.07;;;14.00;29.30;;;;;;5051679;28;20439;-51
2022/03/02 11:00:39;;;;;;;14.50;9.73;;;14.00;29.20;;;;;;5050681;28;20490;-50
2022/03/02 11:03:07;;;;;;;12.60;10.70;;;14.00;29.60;;;;;;5051935;28;20438;-51
2022/03/02 11:05:34;;;;;;;12.80;9.43;;;14.00;29.50;;;;;;5052645;28;20192;-51
2022/03/02 11:08:01;;;;;;;11.27;10.07;;;14.10;29.60;;;;;;5051708;28;21145;-46
2022/03/02 11:10:37;;;;;;;11.20;9.50;;;14.10;29.40;;;;;;5052346;28;20836;-51
2022/03/02 11:13:11;;;;;;;11.33;10.07;;;14.20;29.50;;;;;;5051783;28;20492;-49
2022/03/02 11:15:48;;;;;;;14.53;9.90;;;14.10;29.90;;;;;;5052593;28;20455;-49
2022/03/02 11:18:17;;;;;;;11.07;9.60;;;14.20;29.80;;;;;;5051645;28;20510;-51
2022/03/02 11:21:07;;;;;;;18.30;9.50;;;14.20;30.10;;;;;;5051749;28;20501;-47
2022/03/02 11:23:44;;;;;;;11.20;10.00;;;14.30;30.10;;;;;;5051424;28;20435;-47
2022/03/02 11:26:14;;;;;;;11.97;8.87;;;14.40;30.10;;;;;;5052016;28;20442;-47
2022/03/02 11:28:48;;;;;;;10.17;9.00;;;14.40;29.50;;;;;;5049734;28;20427;-52
2022/03/02 11:31:21;;;;;;;10.43;9.30;;;14.50;29.40;;;;;;5051692;28;20465;-50
2022/03/02 11:33:47;;;;;;;11.70;10.17;;;14.50;29.40;;;;;;5051347;28;20788;-48
2022/03/02 11:36:17;;;;;;;12.33;9.97;;;14.40;28.90;;;;;;5051831;28;20754;-45
2022/03/02 11:38:47;;;;;;;12.57;8.90;;;14.30;28.70;;;;;;5051271;28;20452;-51
2022/03/02 11:41:13;;;;;;;11.67;9.40;;;14.40;29.20;;;;;;5044211;28;20845;-46
2022/03/02 11:43:39;;;;;;;11.83;9.40;;;14.40;29.20;;;;;;5044411;28;20838;-46
2022/03/02 11:46:07;;;;;;;10.60;9.60;;;14.50;29.00;;;;;;5035473;28;20503;-50
2022/03/02 11:48:39;;;;;;;10.90;9.00;;;14.50;28.70;;;;;;5031275;28;20812;-48
2022/03/02 11:51:17;;;;;;;10.47;9.40;;;14.50;29.20;;;;;;5031200;28;20439;-49
2022/03/02 11:53:52;;;;;;;14.10;12.60;;;14.50;29.40;;;;;;5029298;28;20802;-47
2022/03/02 11:56:20;;;;;;;18.40;14.20;;;14.50;29.50;;;;;;5031716;28;20444;-46
2022/03/02 11:59:03;;;;;;;21.80;16.70;;;14.30;30.50;;;;;;5030790;28;20439;-47
2022/03/02 12:01:41;;;;;;;16.20;13.33;;;14.30;31.10;;;;;;5030959;28;20487;-48
2022/03/02 12:04:07;;;;;;;22.37;15.50;;;14.30;31.40;;;;;;5031091;28;20424;-46
2022/03/02 12:07:01;;;;;;;16.03;11.10;;;14.50;31.50;;;;;;5031508;28;20428;-51
2022/03/02 12:09:30;;;;;;;12.60;10.97;;;14.60;30.90;;;;;;5028285;28;20451;-46
2022/03/02 12:12:11;;;;;;;14.23;12.73;;;14.70;30.50;;;;;;5031331;28;20925;-50
2022/03/02 12:14:44;;;;;;;14.20;10.77;;;14.80;30.50;;;;;;5031080;28;20443;-45
2022/03/02 12:17:14;;;;;;;11.53;9.83;;;14.80;30.00;;;;;;5031481;28;20490;-51
2022/03/02 12:19:40;;;;;;;16.60;10.03;;;15.00;30.10;;;;;;5030392;28;20483;-49
2022/03/02 12:22:06;;;;;;;13.47;9.77;;;15.10;29.90;;;;;;5029505;28;20432;-47
2022/03/02 12:24:34;;;;;;;11.40;10.20;;;15.10;29.90;;;;;;5030511;28;20204;-52
2022/03/02 12:27:02;;;;;;;11.47;9.60;;;15.20;30.00;;;;;;5031068;28;20435;-46
2022/03/02 12:29:28;;;;;;;10.50;9.40;;;15.30;29.90;;;;;;5030431;28;20459;-48
2022/03/02 12:32:06;;;;;;;11.83;10.63;;;15.40;29.50;;;;;;5031258;28;20486;-45
2022/03/02 12:34:35;;;;;;;11.90;10.57;;;15.50;29.40;;;;;;5030235;28;20507;-46
2022/03/02 12:37:01;;;;;;;13.43;10.10;;;15.30;29.20;;;;;;5046136;28;20432;-45
2022/03/02 12:39:27;;;;;;;12.83;10.93;;;15.30;29.50;;;;;;5030143;28;20427;-47
2022/03/02 12:41:53;;;;;;;15.00;10.60;;;15.40;29.60;;;;;;5043261;28;20420;-46
2022/03/02 12:44:21;;;;;;;11.80;10.60;;;15.40;30.00;;;;;;5043519;28;20789;-49
2022/03/02 12:46:48;;;;;;;12.20;10.93;;;15.40;29.60;;;;;;5034831;28;20419;-50
2022/03/02 12:49:14;;;;;;;14.70;11.47;;;15.20;29.50;;;;;;5028674;28;20424;-46